Time;durP1;ratioP1;P1;durP2;ratioP2;P2;SDS_P1;SDS_P2;PMS_P1;PMS_P2;Temp;Humidity;BMP_temperature;BMP_pressure;BME280_temperature;BME280_humidity;BME280_pressure;Samples;Min_cycle;Max_cycle;Signal;HPM_P1;HPM_P2
2021/12/07 00:01:33;;;;;;;25.13;12.73;;;;;;;2.87;63.92;99842.84;5497572;32;34033;-63
2021/12/07 00:04:36;;;;;;;26.75;11.93;;;;;;;2.46;64.42;99846.09;5478079;32;34631;-62
2021/12/07 00:07:39;;;;;;;25.40;12.02;;;;;;;2.34;65.98;99847.13;5484396;32;34534;-62
2021/12/07 00:10:42;;;;;;;25.77;11.82;;;;;;;2.60;64.09;99839.81;5474862;32;35151;-62
2021/12/07 00:13:44;;;;;;;23.33;11.47;;;;;;;3.05;62.38;99845.12;5477749;32;34186;-62
2021/12/07 00:16:47;;;;;;;26.30;11.80;;;;;;;1.68;66.71;99852.31;5475621;32;35616;-62
2021/12/07 00:19:49;;;;;;;25.27;12.43;;;;;;;2.29;65.29;99854.94;5463016;32;34623;-62
2021/12/07 00:22:56;;;;;;;26.80;13.23;;;;;;;2.44;64.72;99848.69;5500553;32;34483;-61
2021/12/07 00:25:58;;;;;;;27.27;11.73;;;;;;;1.65;67.50;99854.91;5491642;32;34354;-61
2021/12/07 00:29:03;;;;;;;25.97;11.87;;;;;;;2.00;66.63;99868.31;5474400;32;34015;-63
2021/12/07 00:32:29;;;;;;;24.90;11.50;;;;;;;2.80;63.21;99873.22;5487944;32;34090;-62
2021/12/07 00:35:34;;;;;;;23.90;11.43;;;;;;;2.48;63.65;99860.75;5491445;32;33994;-62
2021/12/07 00:38:37;;;;;;;25.37;11.73;;;;;;;2.76;63.62;99862.91;5502168;32;34029;-62
2021/12/07 00:41:39;;;;;;;23.53;11.80;;;;;;;2.00;66.24;99868.31;5477582;32;34009;-62
2021/12/07 00:44:41;;;;;;;22.93;11.70;;;;;;;2.38;65.67;99859.13;5499678;32;34660;-63
2021/12/07 00:47:43;;;;;;;23.07;12.73;;;;;;;2.18;66.05;99857.69;5476273;32;36010;-61
2021/12/07 00:50:47;;;;;;;25.97;12.23;;;;;;;2.03;65.07;99850.13;5477787;32;34647;-61
2021/12/07 00:53:50;;;;;;;25.60;12.37;;;;;;;2.00;66.24;99855.34;5484629;32;35287;-63
2021/12/07 00:56:52;;;;;;;25.73;11.63;;;;;;;2.52;65.10;99861.56;5494906;32;35462;-62
2021/12/07 00:59:54;;;;;;;22.70;11.37;;;;;;;1.90;67.14;99862.38;5484417;32;33987;-62
2021/12/07 01:02:57;;;;;;;25.00;12.03;;;;;;;2.31;65.58;99857.50;5484325;32;35190;-63
2021/12/07 01:25:37;;;;;;;22.93;12.03;;;;;;;2.54;64.78;99845.09;5492086;32;34088;-61
2021/12/07 01:28:44;;;;;;;25.20;10.97;;;;;;;2.33;64.95;99845.41;5480390;32;33518;-62
2021/12/07 01:32:09;;;;;;;28.53;12.60;;;;;;;2.55;64.73;99830.38;5461333;32;34149;-61
2021/12/07 02:01:40;;;;;;;23.93;11.83;;;;;;;2.70;64.32;99833.59;5498566;32;34748;-62
2021/12/07 02:04:44;;;;;;;25.47;12.40;;;;;;;2.90;64.42;99830.69;5484521;32;34107;-62
2021/12/07 02:07:46;;;;;;;27.80;12.10;;;;;;;2.42;65.17;99845.25;5482952;32;34288;-63
2021/12/07 02:10:51;;;;;;;27.23;13.03;;;;;;;2.10;66.21;99843.97;5450408;32;35183;-62
2021/12/07 02:17:06;;;;;;;23.40;11.90;;;;;;;2.67;64.35;99841.41;5467324;32;33957;-62
2021/12/07 02:20:09;;;;;;;26.70;12.80;;;;;;;2.30;64.96;99832.47;5482351;32;34186;-61
2021/12/07 02:23:12;;;;;;;24.40;11.95;;;;;;;2.24;65.54;99829.97;5493363;32;35446;-62
2021/12/07 02:26:15;;;;;;;24.47;12.17;;;;;;;2.77;64.39;99813.59;5492946;32;34003;-62
2021/12/07 02:29:19;;;;;;;23.83;11.98;;;;;;;2.94;63.46;99826.28;5488798;32;34528;-63
2021/12/07 02:32:22;;;;;;;23.03;11.93;;;;;;;2.89;62.75;99821.16;5484166;32;32793;-62
2021/12/07 02:35:27;;;;;;;25.17;12.83;;;;;;;3.21;62.87;99820.59;5497768;32;34606;-62
2021/12/07 02:38:29;;;;;;;27.57;12.87;;;;;;;3.62;61.42;99811.16;5494538;32;33984;-62
2021/12/07 02:41:33;;;;;;;26.40;12.83;;;;;;;2.82;62.88;99818.69;5471802;32;34133;-62
2021/12/07 02:44:38;;;;;;;26.23;12.07;;;;;;;2.53;64.60;99822.62;5478354;32;35638;-62
2021/12/07 02:47:41;;;;;;;25.43;12.83;;;;;;;2.52;64.81;99820.06;5490236;32;35042;-62
2021/12/07 02:50:43;;;;;;;28.63;13.20;;;;;;;3.00;63.32;99818.37;5496034;32;34749;-62
2021/12/07 02:53:47;;;;;;;24.87;11.63;;;;;;;3.49;61.53;99805.38;5479037;32;34677;-62
2021/12/07 02:56:51;;;;;;;25.87;13.00;;;;;;;2.91;62.89;99802.97;5512082;32;34256;-62
2021/12/07 03:00:09;;;;;;;24.12;11.88;;;;;;;2.83;63.19;99810.00;5476482;32;34799;-62
2021/12/07 03:03:13;;;;;;;24.07;11.83;;;;;;;3.12;62.87;99802.59;5485972;32;34576;-62
2021/12/07 03:25:47;;;;;;;26.93;12.87;;;;;;;3.10;62.84;99796.56;5492193;32;34806;-61
2021/12/07 03:26:43;;;;;;;24.37;12.37;;;;;;;1.51;68.28;99805.84;5481267;32;34441;-62
2021/12/07 03:29:45;;;;;;;27.13;12.37;;;;;;;2.23;65.99;99802.31;5478806;32;34075;-63
2021/12/07 03:32:48;;;;;;;28.13;12.60;;;;;;;2.36;65.35;99801.25;5499823;32;34692;-63
2021/12/07 03:35:50;;;;;;;25.70;12.37;;;;;;;2.81;63.14;99804.00;5476368;32;33888;-61
2021/12/07 03:38:53;;;;;;;27.03;13.23;;;;;;;2.16;65.71;99810.19;5457425;32;142908;-61
2021/12/07 03:41:55;;;;;;;26.83;13.03;;;;;;;1.39;68.42;99801.66;5477271;32;34074;-62
2021/12/07 03:44:57;;;;;;;32.23;14.37;;;;;;;2.12;66.19;99816.28;5482029;32;34642;-62
2021/12/07 03:48:02;;;;;;;27.83;13.53;;;;;;;1.80;66.88;99810.66;5477819;32;34077;-62
2021/12/07 03:51:04;;;;;;;28.50;13.07;;;;;;;1.71;67.31;99811.66;5493728;32;35184;-63
2021/12/07 03:54:06;;;;;;;28.77;13.43;;;;;;;1.85;67.56;99816.66;5476619;32;35381;-62
2021/12/07 03:57:09;;;;;;;27.17;12.93;;;;;;;2.40;64.44;99811.56;5471967;32;34426;-61
2021/12/07 04:00:15;;;;;;;28.67;13.63;;;;;;;1.81;67.85;99822.78;5485256;32;34159;-61
2021/12/07 04:03:19;;;;;;;34.20;14.30;;;;;;;1.54;68.82;99818.75;5486074;32;33962;-61
2021/12/07 04:06:22;;;;;;;24.17;11.75;;;;;;;1.46;69.12;99818.00;5474424;32;33967;-62
2021/12/07 04:09:24;;;;;;;31.80;14.77;;;;;;;1.56;68.58;99815.28;5498519;32;33999;-62
2021/12/07 04:12:26;;;;;;;31.30;14.17;;;;;;;1.59;68.28;99815.25;5479638;32;34685;-61
2021/12/07 04:15:29;;;;;;;37.00;15.03;;;;;;;2.01;67.57;99817.34;5486816;32;34898;-63
2021/12/07 04:18:31;;;;;;;29.37;14.17;;;;;;;1.76;68.02;99817.63;5482566;32;33936;-62
2021/12/07 04:21:33;;;;;;;30.50;14.17;;;;;;;2.31;65.69;99816.03;5485570;32;35086;-61
2021/12/07 04:24:35;;;;;;;30.03;14.20;;;;;;;1.34;69.88;99811.22;5492880;32;35165;-62
2021/12/07 04:27:39;;;;;;;35.17;14.27;;;;;;;1.54;68.70;99811.84;5488117;32;34480;-62
2021/12/07 04:30:42;;;;;;;29.12;13.55;;;;;;;2.15;66.10;99820.59;5483730;32;34114;-62
2021/12/07 04:33:45;;;;;;;30.70;13.70;;;;;;;1.96;67.24;99825.16;5470279;32;33955;-62
2021/12/07 04:36:48;;;;;;;31.43;15.03;;;;;;;1.48;68.73;99822.31;5483409;32;33958;-62
2021/12/07 04:39:50;;;;;;;27.70;13.77;;;;;;;2.25;66.60;99829.94;5492998;32;34141;-62
2021/12/07 04:42:53;;;;;;;38.80;15.63;;;;;;;2.86;64.34;99835.94;5488180;32;34014;-62
2021/12/07 04:46:15;;;;;;;30.57;13.90;;;;;;;2.51;64.56;99832.13;5489345;32;33300;-61
2021/12/07 04:59:08;;;;;;;31.07;14.23;;;;;;;3.45;60.89;99818.44;5491645;32;35539;-61
2021/12/07 05:02:12;;;;;;;35.13;14.60;;;;;;;2.47;64.19;99838.28;5481275;32;34896;-63
2021/12/07 05:05:16;;;;;;;35.22;15.02;;;;;;;2.56;63.82;99843.31;5480466;32;34152;-62
2021/12/07 05:08:40;;;;;;;34.70;14.77;;;;;;;2.96;62.34;99835.78;5497076;32;36551;-62
2021/12/07 05:12:24;;;;;;;30.40;13.27;;;;;;;2.29;64.83;99848.91;5472608;32;35178;-63
2021/12/07 05:15:31;;;;;;;32.60;14.17;;;;;;;2.58;64.18;99851.94;5486016;32;33973;-63
2021/12/07 05:18:59;;;;;;;32.17;15.20;;;;;;;2.07;64.71;99857.00;5475230;32;33510;-61
2021/12/07 05:25:52;;;;;;;33.63;14.67;;;;;;;1.86;66.27;99858.09;5498622;32;33999;-61
2021/12/07 05:38:33;;;;;;;28.70;13.90;;;;;;;2.23;63.87;99854.19;5491433;32;33922;-62
2021/12/07 05:41:35;;;;;;;31.33;13.90;;;;;;;1.79;65.01;99865.97;5486293;32;34374;-61
2021/12/07 05:44:37;;;;;;;30.37;13.73;;;;;;;2.09;65.41;99852.62;5491671;32;34385;-61
2021/12/07 05:47:40;;;;;;;30.77;13.60;;;;;;;2.15;65.17;99856.87;5488288;32;34880;-62
2021/12/07 05:50:43;;;;;;;27.67;13.73;;;;;;;1.32;67.29;99850.06;5485630;32;34096;-63
2021/12/07 05:53:45;;;;;;;26.90;13.00;;;;;;;2.65;63.51;99850.97;5481655;32;34887;-62
2021/12/07 05:56:48;;;;;;;34.10;12.50;;;;;;;2.57;63.09;99844.16;5496095;32;34013;-63
2021/12/07 05:59:50;;;;;;;29.47;13.33;;;;;;;2.09;65.36;99847.44;5490375;32;35215;-62
2021/12/07 06:03:05;;;;;;;27.07;13.23;;;;;;;1.89;65.30;99844.25;5500040;32;34016;-62
2021/12/07 06:06:07;;;;;;;32.30;13.67;;;;;;;2.26;64.83;99843.78;5480952;32;34934;-62
2021/12/07 06:09:09;;;;;;;28.20;13.67;;;;;;;1.50;65.98;99846.44;5742290;26;34562;-63
2021/12/07 06:12:12;;;;;;;33.10;14.23;;;;;;;2.18;64.84;99836.94;5464813;32;34478;-64
2021/12/07 06:15:18;;;;;;;29.17;13.70;;;;;;;2.60;62.86;99834.63;5462008;32;34622;-63
2021/12/07 06:18:20;;;;;;;27.10;13.30;;;;;;;2.24;64.76;99838.59;5464677;32;34208;-62
2021/12/07 06:21:22;;;;;;;33.13;14.27;;;;;;;2.05;64.72;99840.56;5463391;32;34795;-62
2021/12/07 06:24:25;;;;;;;32.10;13.47;;;;;;;2.01;65.48;99846.69;5462952;32;34484;-62
2021/12/07 06:27:27;;;;;;;32.93;13.77;;;;;;;2.16;64.63;99840.44;5466437;32;34758;-62
2021/12/07 06:30:29;;;;;;;33.00;13.47;;;;;;;2.32;64.29;99843.66;5451913;32;34199;-62
2021/12/07 06:33:31;;;;;;;28.60;13.13;;;;;;;2.24;63.99;99845.53;5473339;32;34157;-69
2021/12/07 06:36:34;;;;;;;33.47;13.35;;;;;;;1.47;66.59;99848.19;5435995;32;34121;-66
2021/12/07 06:39:36;;;;;;;47.00;19.40;;;;;;;1.30;67.63;99849.25;5454592;32;34428;-61
2021/12/07 06:42:39;;;;;;;29.13;13.63;;;;;;;1.30;67.35;99853.56;5467944;32;34092;-65
2021/12/07 06:45:41;;;;;;;31.33;14.23;;;;;;;1.19;68.31;99850.22;5449908;32;35161;-64
2021/12/07 06:48:44;;;;;;;31.60;13.53;;;;;;;1.95;65.02;99844.19;5463508;32;34712;-63
2021/12/07 06:51:47;;;;;;;31.20;14.20;;;;;;;2.60;63.66;99857.09;5451019;32;35137;-66
2021/12/07 06:54:49;;;;;;;30.90;13.47;;;;;;;2.33;63.75;99848.84;5457956;32;35334;-66
2021/12/07 06:57:52;;;;;;;28.33;13.30;;;;;;;2.65;63.00;99853.56;5461598;32;34136;-65
2021/12/07 07:00:54;;;;;;;34.30;14.57;;;;;;;1.34;67.09;99858.66;5455427;32;34767;-64
2021/12/07 07:03:56;;;;;;;31.90;14.07;;;;;;;1.97;65.36;99852.78;5458252;32;35222;-62
2021/12/07 07:06:59;;;;;;;33.10;15.37;;;;;;;1.39;67.03;99861.22;5455798;32;34873;-66
2021/12/07 07:10:01;;;;;;;30.03;13.57;;;;;;;2.39;64.61;99859.16;5455477;32;34563;-64
2021/12/07 07:13:03;;;;;;;27.97;14.20;;;;;;;2.43;64.00;99849.56;5442649;32;35551;-62
2021/12/07 07:16:06;;;;;;;39.43;14.63;;;;;;;2.21;64.75;99861.13;5451735;32;36839;-62
2021/12/07 07:19:11;;;;;;;33.60;13.87;;;;;;;2.34;63.93;99860.09;5458003;32;34083;-62
2021/12/07 07:22:13;;;;;;;32.17;14.50;;;;;;;2.26;63.62;99870.56;5460168;32;32642;-63
2021/12/07 07:25:16;;;;;;;30.77;14.33;;;;;;;1.92;65.00;99869.28;5456121;32;34180;-62
2021/12/07 07:28:18;;;;;;;32.67;13.57;;;;;;;2.02;64.97;99866.56;5463506;32;35393;-62
2021/12/07 07:31:20;;;;;;;29.20;13.57;;;;;;;2.56;63.35;99865.81;5470539;32;35255;-63
2021/12/07 07:34:24;;;;;;;41.53;15.18;;;;;;;2.81;62.60;99868.88;5465797;32;34529;-61
2021/12/07 07:37:27;;;;;;;29.00;14.17;;;;;;;2.98;60.91;99869.47;5467954;32;34033;-66
2021/12/07 07:40:29;;;;;;;29.17;13.37;;;;;;;2.15;64.62;99878.47;5466218;32;34472;-62
2021/12/07 07:43:32;;;;;;;36.00;14.60;;;;;;;2.36;63.43;99871.28;5471600;32;35688;-61
2021/12/07 07:46:35;;;;;;;34.07;14.77;;;;;;;2.46;63.44;99870.28;5465465;32;34101;-64
2021/12/07 07:49:37;;;;;;;27.63;13.97;;;;;;;3.14;60.89;99867.47;5462251;32;35237;-63
2021/12/07 07:52:42;;;;;;;32.07;13.87;;;;;;;2.54;61.72;99883.16;5473457;32;34567;-65
2021/12/07 07:55:46;;;;;;;32.30;14.00;;;;;;;2.20;64.77;99885.34;5459316;32;34487;-61
2021/12/07 07:58:48;;;;;;;32.97;13.70;;;;;;;2.16;63.19;99885.38;5465797;32;35264;-63
2021/12/07 08:01:50;;;;;;;33.23;14.13;;;;;;;2.67;62.62;99889.88;5462856;32;35241;-70
2021/12/07 08:04:53;;;;;;;29.83;12.97;;;;;;;2.61;61.46;99888.22;5442346;32;32720;-66
2021/12/07 08:07:55;;;;;;;30.17;13.83;;;;;;;2.85;61.57;99891.34;5470526;32;33565;-66
2021/12/07 08:10:58;;;;;;;28.53;12.77;;;;;;;3.01;60.26;99887.59;5462708;32;35082;-63
2021/12/07 08:14:00;;;;;;;32.10;14.40;;;;;;;3.04;61.02;99886.69;5467661;32;34423;-63
2021/12/07 08:17:04;;;;;;;28.30;13.63;;;;;;;3.48;59.25;99889.41;5460236;32;34750;-63
2021/12/07 08:20:07;;;;;;;;;;;;;;;2.11;62.64;99902.72;5465627;32;34249;-64
2021/12/07 08:23:10;;;;;;;30.13;12.87;;;;;;;2.37;63.46;99906.72;5467383;32;34241;-62
2021/12/07 08:26:15;;;;;;;31.05;13.60;;;;;;;3.99;58.12;99893.59;5461585;32;33949;-63
2021/12/07 08:29:23;;;;;;;34.33;14.13;;;;;;;4.07;58.15;99894.31;5463024;32;34378;-64
2021/12/07 08:32:25;;;;;;;29.17;13.53;;;;;;;4.53;55.87;99893.34;5451118;32;33985;-65
2021/12/07 08:35:28;;;;;;;39.47;16.57;;;;;;;4.94;54.97;99891.53;5449166;32;33934;-63
2021/12/07 08:38:31;;;;;;;33.73;14.73;;;;;;;4.60;56.05;99906.19;5447017;32;34041;-64
2021/12/07 08:41:33;;;;;;;33.17;15.03;;;;;;;3.47;59.21;99900.66;5461146;32;35100;-65
2021/12/07 08:44:35;;;;;;;30.57;13.20;;;;;;;4.65;56.17;99897.41;5469377;32;33601;-61
2021/12/07 08:47:38;;;;;;;34.53;13.40;;;;;;;4.77;54.41;99895.41;5458380;32;33976;-61
2021/12/07 08:50:44;;;;;;;29.57;13.60;;;;;;;4.46;55.42;99881.34;5467842;32;35854;-62
2021/12/07 08:53:57;;;;;;;31.23;14.17;;;;;;;4.35;55.29;99887.63;5461427;32;34501;-62
2021/12/07 09:00:20;;;;;;;30.50;12.63;;;;;;;4.55;56.31;99879.37;5460735;32;33328;-62
2021/12/07 09:03:26;;;;;;;31.77;14.53;;;;;;;3.48;58.91;99881.59;5458375;32;35306;-62
2021/12/07 09:06:33;;;;;;;30.27;15.03;;;;;;;3.26;60.29;99868.12;5464179;32;34837;-63
2021/12/07 09:09:36;;;;;;;31.27;14.43;;;;;;;4.47;56.49;99867.44;5475896;32;34253;-61
2021/12/07 09:12:39;;;;;;;29.90;14.18;;;;;;;4.79;54.93;99861.50;5474550;32;33979;-63
2021/12/07 09:15:41;;;;;;;31.40;14.27;;;;;;;5.34;54.03;99853.12;5466534;32;34225;-64
2021/12/07 09:18:45;;;;;;;28.77;13.60;;;;;;;5.02;54.63;99855.72;5452035;32;32980;-67
2021/12/07 09:21:48;;;;;;;32.05;13.77;;;;;;;4.78;55.74;99859.78;5439367;32;34101;-64
2021/12/07 09:24:51;;;;;;;36.47;14.77;;;;;;;5.01;54.75;99854.00;5480627;32;33320;-62
2021/12/07 09:27:54;;;;;;;32.40;15.10;;;;;;;4.66;55.41;99862.69;5477140;32;33105;-61
2021/12/07 09:30:56;;;;;;;31.67;14.30;;;;;;;5.38;54.02;99849.56;5458950;32;34016;-61
2021/12/07 09:33:58;;;;;;;31.17;14.27;;;;;;;4.98;54.72;99849.75;5459933;32;34117;-65
2021/12/07 09:37:01;;;;;;;29.90;14.00;;;;;;;4.07;56.82;99850.97;5467651;32;36390;-62
2021/12/07 09:40:09;;;;;;;28.43;13.13;;;;;;;4.40;56.89;99848.53;5485733;32;34138;-64
2021/12/07 09:43:14;;;;;;;34.63;13.80;;;;;;;4.48;56.40;99849.19;5487728;32;34676;-64
2021/12/07 09:46:17;;;;;;;26.80;13.83;;;;;;;4.61;55.53;99828.94;5470901;32;34113;-66
2021/12/07 09:49:20;;;;;;;;;;;;;;;3.86;57.89;99830.59;5471265;32;34551;-63
2021/12/07 09:52:26;;;;;;;26.07;12.77;;;;;;;4.59;56.06;99822.94;5483176;32;34332;-61
2021/12/07 09:55:33;;;;;;;32.30;14.37;;;;;;;4.56;56.37;99825.59;5484170;32;34981;-65
2021/12/07 09:58:36;;;;;;;28.70;13.97;;;;;;;5.38;53.88;99820.91;5471311;32;35268;-65
2021/12/07 10:01:42;;;;;;;28.10;13.50;;;;;;;4.21;57.23;99819.44;5471647;32;34199;-67
2021/12/07 10:04:46;;;;;;;28.37;13.83;;;;;;;5.31;54.59;99821.13;5457275;32;34094;-70
2021/12/07 10:07:50;;;;;;;32.47;14.90;;;;;;;4.58;55.85;99826.44;5484473;32;35264;-66
2021/12/07 10:10:55;;;;;;;32.27;14.40;;;;;;;4.59;56.37;99829.00;5472251;32;34081;-61
2021/12/07 10:13:57;;;;;;;28.77;14.43;;;;;;;4.31;57.04;99826.16;5484284;32;34106;-66
2021/12/07 10:16:59;;;;;;;30.63;13.77;;;;;;;5.22;55.04;99811.81;5458256;32;32898;-63
2021/12/07 10:20:31;;;;;;;24.60;13.17;;;;;;;4.74;55.71;99808.69;5487012;32;33953;-64
2021/12/07 10:23:55;;;;;;;25.07;12.07;;;;;;;5.54;53.11;99803.13;5480573;32;35789;-64
2021/12/07 10:26:59;;;;;;;29.80;13.83;;;;;;;4.89;54.57;99803.09;5478480;32;34068;-67
2021/12/07 10:30:05;;;;;;;30.53;13.60;;;;;;;4.72;55.88;99800.91;5484645;32;33977;-66
2021/12/07 10:33:07;;;;;;;28.50;12.50;;;;;;;5.18;54.46;99797.13;5481871;32;32592;-67
2021/12/07 10:36:17;;;;;;;27.73;12.73;;;;;;;4.94;55.25;99797.75;5470599;32;33993;-65
2021/12/07 10:39:26;;;;;;;29.17;13.37;;;;;;;4.66;56.17;99797.59;5476120;32;36186;-65
2021/12/07 10:42:30;;;;;;;28.13;12.40;;;;;;;4.21;57.35;99803.84;5465130;32;34753;-66
2021/12/07 10:45:35;;;;;;;36.90;14.73;;;;;;;4.66;56.17;99798.47;5476201;32;36326;-67
2021/12/07 10:48:37;;;;;;;31.00;13.87;;;;;;;4.78;56.07;99798.16;5471264;32;33987;-61
2021/12/07 10:51:42;;;;;;;26.87;13.50;;;;;;;4.68;56.57;99795.81;5483545;32;34139;-68
2021/12/07 10:54:54;;;;;;;29.03;13.60;;;;;;;5.12;54.73;99794.69;5463992;32;36092;-66
2021/12/07 10:58:02;;;;;;;32.27;14.43;;;;;;;5.14;54.57;99795.50;5480342;32;34332;-65
2021/12/07 11:01:04;;;;;;;29.03;14.10;;;;;;;4.92;55.95;99787.41;5474909;32;33961;-68
2021/12/07 11:04:30;;;;;;;27.10;13.00;;;;;;;4.82;55.30;99781.56;5472020;32;35310;-64
2021/12/07 11:07:34;;;;;;;35.57;18.27;;;;;;;4.56;57.29;99789.16;5483266;32;34835;-65
2021/12/07 11:10:39;;;;;;;32.77;14.27;;;;;;;4.66;56.88;99787.19;5473549;32;34708;-65
2021/12/07 11:13:50;;;;;;;27.43;13.47;;;;;;;5.37;54.20;99781.88;5481276;32;33419;-67
2021/12/07 11:16:53;;;;;;;34.23;14.10;;;;;;;4.91;55.58;99784.84;5477496;32;34320;-66
2021/12/07 11:19:57;;;;;;;34.13;13.95;;;;;;;5.12;54.80;99789.47;5469438;32;34029;-68
2021/12/07 11:23:07;;;;;;;29.05;13.55;;;;;;;5.38;54.52;99778.34;5471760;32;34776;-69
2021/12/07 11:32:35;;;;;;;29.73;14.30;;;;;;;6.27;51.65;99776.66;5482087;32;34010;-68
2021/12/07 11:35:39;;;;;;;28.40;14.55;;;;;;;4.72;55.68;99774.03;5465407;32;34873;-69
2021/12/07 11:38:43;;;;;;;28.63;13.60;;;;;;;5.07;54.73;99778.31;5462918;32;34250;-64
2021/12/07 11:41:49;;;;;;;31.95;14.05;;;;;;;4.65;56.20;99770.72;5477809;32;32299;-65
2021/12/07 11:44:54;;;;;;;30.37;14.13;;;;;;;4.46;57.60;99774.66;5480119;32;35239;-68
2021/12/07 11:48:00;;;;;;;32.13;14.73;;;;;;;4.91;56.56;99775.28;5471498;32;33999;-67
2021/12/07 11:51:02;;;;;;;32.80;14.40;;;;;;;5.23;55.67;99770.97;5468167;32;34009;-64
2021/12/07 11:54:05;;;;;;;31.17;14.60;;;;;;;4.16;58.12;99786.63;5472991;32;35189;-65
2021/12/07 11:57:13;;;;;;;28.50;14.63;;;;;;;4.44;57.09;99777.28;5469011;32;34777;-64
2021/12/07 12:00:22;;;;;;;30.10;14.27;;;;;;;4.49;57.27;99785.00;5465926;32;34534;-66
2021/12/07 12:03:26;;;;;;;31.13;14.90;;;;;;;4.70;57.02;99787.09;5483108;32;34340;-65
2021/12/07 12:06:30;;;;;;;33.27;15.60;;;;;;;3.47;60.52;99783.72;5465677;32;33534;-65
2021/12/07 12:09:32;;;;;;;;;;;;;;;4.16;59.13;99787.47;5483766;32;34025;-68
2021/12/07 12:12:45;;;;;;;31.63;14.40;;;;;;;3.84;59.43;99787.34;5490757;32;34840;-69
2021/12/07 12:16:08;;;;;;;30.08;14.32;;;;;;;4.81;57.07;99772.03;5474571;32;34011;-70
2021/12/07 12:19:16;;;;;;;39.53;13.97;;;;;;;4.21;58.05;99782.19;5480903;32;34894;-70
2021/12/07 12:22:31;;;;;;;33.40;15.90;;;;;;;5.07;56.70;99770.50;5490610;32;34512;-71
2021/12/07 12:25:35;;;;;;;34.67;16.27;;;;;;;5.15;56.27;99771.16;5448023;32;35184;-65
2021/12/07 12:28:43;;;;;;;32.17;14.63;;;;;;;5.73;53.84;99766.91;5482279;32;34354;-67
2021/12/07 12:31:56;;;;;;;40.13;16.73;;;;;;;4.99;56.32;99772.47;5452884;32;33725;-65
2021/12/07 12:35:00;;;;;;;32.38;16.12;;;;;;;4.99;56.22;99780.28;5464007;32;34377;-66
2021/12/07 12:38:02;;;;;;;33.78;15.18;;;;;;;4.44;57.76;99786.84;5472916;32;34798;-68
2021/12/07 12:41:08;;;;;;;32.00;14.27;;;;;;;4.94;56.52;99780.37;5469780;32;34120;-70
2021/12/07 12:44:14;;;;;;;30.13;15.13;;;;;;;5.11;56.06;99795.59;5492962;32;36033;-69
2021/12/07 12:47:19;;;;;;;34.47;16.03;;;;;;;4.44;57.26;99799.84;5466262;32;34507;-67
2021/12/07 12:50:32;;;;;;;32.73;15.67;;;;;;;4.86;56.78;99804.03;5471814;32;34845;-64
2021/12/07 12:53:35;;;;;;;32.23;14.20;;;;;;;4.89;56.76;99803.97;5459089;32;35366;-68
2021/12/07 12:56:40;;;;;;;33.20;15.23;;;;;;;4.88;57.26;99802.22;5464098;32;33409;-62
2021/12/07 12:59:46;;;;;;;28.93;14.23;;;;;;;4.88;57.07;99815.25;5489984;32;34954;-66
2021/12/07 13:02:54;;;;;;;31.73;15.27;;;;;;;4.07;59.10;99817.16;5468287;32;33767;-69
2021/12/07 13:06:00;;;;;;;30.63;14.53;;;;;;;4.39;58.06;99822.53;5481617;32;33955;-66
2021/12/07 13:09:10;;;;;;;36.63;15.00;;;;;;;4.32;58.03;99833.09;5460972;32;37806;-69
2021/12/07 13:12:22;;;;;;;32.97;15.03;;;;;;;4.99;56.65;99819.34;5482719;32;34071;-69
2021/12/07 13:15:34;;;;;;;33.05;15.38;;;;;;;4.17;59.19;99827.34;5485441;32;36718;-72
2021/12/07 13:18:41;;;;;;;34.07;15.47;;;;;;;4.48;57.75;99817.97;5485445;32;34957;-68
2021/12/07 13:21:44;;;;;;;42.37;20.40;;;;;;;4.16;58.50;99820.44;5483985;32;33958;-69
2021/12/07 13:24:48;;;;;;;;;;;;;;;4.38;58.60;99815.59;5484327;32;35216;-70
2021/12/07 13:28:03;;;;;;;36.93;15.30;;;;;;;4.44;58.90;99815.47;5462695;32;35442;-69
2021/12/07 13:31:09;;;;;;;33.87;15.13;;;;;;;4.73;57.81;99814.78;5483367;32;35092;-69
2021/12/07 13:34:15;;;;;;;39.70;16.47;;;;;;;3.85;60.19;99813.28;5469257;32;35464;-70
2021/12/07 13:37:20;;;;;;;35.17;15.60;;;;;;;3.88;59.99;99815.84;5472831;32;34221;-70
2021/12/07 13:40:24;;;;;;;33.30;16.07;;;;;;;4.57;58.80;99812.56;5462586;32;34498;-70
2021/12/07 13:43:35;;;;;;;35.50;15.93;;;;;;;4.17;60.05;99823.00;5483777;32;34389;-71
2021/12/07 13:46:37;;;;;;;38.70;17.10;;;;;;;4.42;59.01;99827.66;5485532;32;34038;-70
2021/12/07 13:49:46;;;;;;;34.17;14.93;;;;;;;4.42;58.81;99828.50;5482952;32;34808;-68
2021/12/07 13:52:51;;;;;;;32.40;16.03;;;;;;;4.84;57.85;99825.81;5478814;32;34586;-68
2021/12/07 13:55:53;;;;;;;38.27;17.97;;;;;;;4.94;57.58;99826.41;5475786;32;34646;-68
2021/12/07 13:59:04;;;;;;;35.47;15.90;;;;;;;4.65;58.02;99834.94;5475182;32;34185;-67
2021/12/07 14:02:07;;;;;;;41.33;18.10;;;;;;;4.44;59.71;99834.53;5472029;32;34727;-63
2021/12/07 14:05:20;;;;;;;33.38;15.65;;;;;;;4.63;58.79;99842.78;5480210;32;35298;-67
2021/12/07 14:08:30;;;;;;;38.80;18.60;;;;;;;3.98;60.45;99847.69;5461851;32;34605;-68
2021/12/07 14:11:58;;;;;;;37.53;16.20;;;;;;;4.02;61.09;99847.59;5478445;32;34678;-70
2021/12/07 14:15:22;;;;;;;38.40;16.43;;;;;;;3.59;63.49;99846.75;5472660;32;34041;-70
2021/12/07 14:18:26;;;;;;;41.67;15.37;;;;;;;3.29;64.12;99851.66;5483867;32;35098;-63
2021/12/07 14:21:29;;;;;;;;;;;;;;;3.05;65.46;99852.91;5457407;32;35193;-63
2021/12/07 14:24:31;;;;;;;35.10;15.70;;;;;;;3.41;63.31;99851.38;5470417;32;35483;-70
2021/12/07 14:27:34;;;;;;;36.33;16.77;;;;;;;3.77;63.57;99852.44;5467495;32;34826;-68
2021/12/07 14:30:36;;;;;;;34.13;16.00;;;;;;;3.43;63.87;99864.37;5450971;32;34649;-69
2021/12/07 14:33:49;;;;;;;37.30;16.43;;;;;;;3.34;63.54;99856.72;5472705;32;32875;-65
2021/12/07 14:36:55;;;;;;;37.90;16.17;;;;;;;2.95;66.56;99867.78;5468697;32;33955;-63
2021/12/07 14:39:57;;;;;;;36.73;17.27;;;;;;;3.41;64.67;99860.94;5485950;32;34444;-63
2021/12/07 14:43:00;;;;;;;34.43;15.00;;;;;;;3.60;63.44;99848.44;5437134;32;34015;-62
2021/12/07 14:46:05;;;;;;;35.53;17.40;;;;;;;3.38;64.71;99859.25;5456587;32;33948;-62
2021/12/07 14:49:09;;;;;;;34.00;14.00;;;;;;;3.33;64.86;99863.66;5460202;32;33766;-61
2021/12/07 14:52:14;;;;;;;43.30;18.27;;;;;;;3.05;65.18;99873.69;5469536;32;34006;-63
2021/12/07 14:55:18;;;;;;;37.37;16.67;;;;;;;2.42;67.76;99874.66;5454719;32;33690;-65
2021/12/07 14:58:29;;;;;;;39.00;16.97;;;;;;;2.28;68.07;99873.13;5455591;32;34134;-62
2021/12/07 15:01:37;;;;;;;34.20;16.77;;;;;;;2.98;65.85;99872.09;5470822;32;34071;-65
2021/12/07 15:04:42;;;;;;;36.93;17.20;;;;;;;2.40;67.06;99881.59;5466428;32;34861;-65
2021/12/07 15:07:44;;;;;;;39.97;15.70;;;;;;;2.34;68.10;99883.44;5452307;32;34103;-66
2021/12/07 15:10:47;;;;;;;34.03;14.37;;;;;;;2.52;67.42;99880.56;5449776;32;33933;-63
2021/12/07 15:13:50;;;;;;;38.43;16.30;;;;;;;2.65;66.61;99876.06;5456139;32;33942;-72
2021/12/07 15:17:00;;;;;;;40.40;16.10;;;;;;;2.91;65.79;99884.31;5464761;32;34574;-67
2021/12/07 15:20:09;;;;;;;38.33;16.37;;;;;;;2.20;68.39;99886.22;5458431;32;35925;-64
2021/12/07 15:23:12;;;;;;;42.40;17.00;;;;;;;2.75;66.08;99885.41;5459063;32;34198;-67
2021/12/07 15:26:16;;;;;;;42.83;18.20;;;;;;;2.98;65.53;99885.06;5459861;32;34128;-66
2021/12/07 15:29:21;;;;;;;35.92;15.88;;;;;;;2.75;66.53;99889.75;5466354;32;34538;-68
2021/12/07 15:32:26;;;;;;;34.47;14.27;;;;;;;2.57;66.88;99889.13;5466634;32;33339;-66
2021/12/07 15:35:28;;;;;;;37.87;16.40;;;;;;;2.44;67.21;99890.19;5456393;32;34400;-65
2021/12/07 15:38:30;;;;;;;38.97;16.77;;;;;;;2.25;67.87;99899.09;5481796;32;35163;-68
2021/12/07 15:41:33;;;;;;;36.97;15.50;;;;;;;1.97;69.45;99904.63;5462823;32;34817;-75
2021/12/07 15:44:40;;;;;;;39.13;17.07;;;;;;;2.81;65.80;99907.81;5477003;32;33980;-67
2021/12/07 15:47:45;;;;;;;33.73;17.20;;;;;;;2.01;68.92;99906.31;5477416;32;33062;-70
2021/12/07 15:50:50;;;;;;;40.93;16.80;;;;;;;2.50;67.98;99907.41;5472109;32;34095;-67
2021/12/07 15:53:56;;;;;;;38.03;15.80;;;;;;;2.31;67.15;99904.19;5490017;32;34857;-68
2021/12/07 15:57:11;;;;;;;34.47;15.47;;;;;;;2.70;66.79;99907.97;5469220;32;34500;-68
2021/12/07 16:00:38;;;;;;;44.33;18.10;;;;;;;2.06;68.01;99901.94;5465908;32;34550;-74
2021/12/07 16:03:47;;;;;;;38.57;15.67;;;;;;;2.35;67.69;99898.09;5465623;32;36605;-75